Time;durP1;ratioP1;P1;durP2;ratioP2;P2;SDS_P1;SDS_P2;PMS_P1;PMS_P2;Temp;Humidity;BMP_temperature;BMP_pressure;BME280_temperature;BME280_humidity;BME280_pressure;Samples;Min_cycle;Max_cycle;Signal;HPM_P1;HPM_P2
2022/04/23 00:01:39;;;;;;;7.85;4.75;;;19.80;75.10;;;;;;5157354;27;20039;-62
2022/04/23 00:04:05;;;;;;;10.25;4.97;;;19.90;75.60;;;;;;5177077;27;20054;-61
2022/04/23 00:06:31;;;;;;;9.23;4.80;;;;;;;;;;5177592;27;20379;-69
2022/04/23 00:08:57;;;;;;;8.50;4.50;;;20.10;78.40;;;;;;5175471;27;20092;-65
2022/04/23 00:11:23;;;;;;;7.90;4.45;;;19.90;78.50;;;;;;5140601;27;20077;-68
2022/04/23 00:13:49;;;;;;;10.02;4.93;;;19.50;78.50;;;;;;5175949;27;20061;-67
2022/04/23 00:16:15;;;;;;;6.43;4.43;;;19.80;78.90;;;;;;5158322;27;20042;-67
2022/04/23 00:18:42;;;;;;;9.90;4.75;;;19.80;78.50;;;;;;5175822;27;20458;-67
2022/04/23 00:21:08;;;;;;;8.88;5.15;;;19.60;78.50;;;;;;5138602;27;20193;-66
2022/04/23 00:23:34;;;;;;;8.95;5.07;;;19.70;76.30;;;;;;5157754;27;20042;-66
2022/04/23 00:26:01;;;;;;;9.30;4.82;;;20.00;78.60;;;;;;5176581;27;20050;-68
2022/04/23 00:28:26;;;;;;;10.55;5.53;;;19.60;78.60;;;;;;5154170;27;20038;-68
2022/04/23 00:30:52;;;;;;;9.73;4.63;;;19.80;78.60;;;;;;5157391;27;20053;-68
2022/04/23 00:33:19;;;;;;;9.15;5.28;;;20.00;78.90;;;;;;5175183;27;20056;-66
2022/04/23 00:35:45;;;;;;;11.43;5.60;;;19.80;78.70;;;;;;5157143;27;20049;-68
2022/04/23 00:38:11;;;;;;;9.60;5.20;;;19.90;77.60;;;;;;5123287;27;20057;-66
2022/04/23 00:40:39;;;;;;;7.45;4.78;;;19.70;78.50;;;;;;5175356;27;20034;-69
2022/04/23 00:43:10;;;;;;;9.00;5.40;;;19.70;78.60;;;;;;5157279;27;20057;-66
2022/04/23 00:45:36;;;;;;;9.27;5.40;;;19.80;75.80;;;;;;5140972;27;20046;-68
2022/04/23 00:48:01;;;;;;;9.10;5.15;;;19.90;78.80;;;;;;5139937;27;20049;-69
2022/04/23 00:50:27;;;;;;;9.98;5.68;;;19.90;75.70;;;;;;5156732;27;20125;-67
2022/04/23 00:52:56;;;;;;;8.27;4.97;;;19.60;78.60;;;;;;5175172;27;20034;-66
2022/04/23 00:55:22;;;;;;;9.18;5.10;;;19.70;78.90;;;;;;5175256;27;20053;-66
2022/04/23 00:57:48;;;;;;;8.18;4.93;;;19.70;76.00;;;;;;5157247;27;20043;-68
2022/04/23 01:00:15;;;;;;;8.55;5.45;;;19.80;78.90;;;;;;5175019;27;20038;-66
2022/04/23 01:02:41;;;;;;;8.32;5.13;;;19.80;76.10;;;;;;5176274;27;20419;-67
2022/04/23 01:05:09;;;;;;;10.25;6.35;;;19.70;78.80;;;;;;5176207;27;20126;-68
2022/04/23 01:07:38;;;;;;;8.90;5.32;;;19.80;77.60;;;;;;5157166;27;20503;-65
2022/04/23 01:10:08;;;;;;;9.43;5.40;;;19.60;78.80;;;;;;5156870;27;20045;-67
2022/04/23 01:12:35;;;;;;;9.80;5.22;;;19.60;78.90;;;;;;5176097;27;20042;-66
2022/04/23 01:15:10;;;;;;;9.68;5.70;;;19.60;78.90;;;;;;5176051;27;20505;-67
2022/04/23 01:17:36;;;;;;;10.35;5.72;;;19.60;78.90;;;;;;5155457;27;20081;-68
2022/04/23 01:20:06;;;;;;;8.77;5.22;;;19.30;78.90;;;;;;5159109;27;20046;-68
2022/04/23 01:22:32;;;;;;;11.05;6.20;;;;;;;;;;5180326;27;20038;-68
2022/04/23 01:24:58;;;;;;;9.82;5.85;;;19.50;78.90;;;;;;5180305;27;20045;-67
2022/04/23 01:27:28;;;;;;;13.68;5.75;;;19.60;75.50;;;;;;5158952;27;20502;-63
2022/04/23 01:29:55;;;;;;;9.38;5.78;;;19.40;78.90;;;;;;5142865;27;20054;-64
2022/04/23 01:32:21;;;;;;;8.88;5.75;;;19.20;78.80;;;;;;5179747;27;20081;-63
2022/04/23 01:34:47;;;;;;;9.90;6.05;;;19.30;79.10;;;;;;5144004;27;20104;-63
2022/04/23 01:37:13;;;;;;;11.95;5.45;;;19.40;76.10;;;;;;5161105;27;20502;-68
2022/04/23 01:39:40;;;;;;;11.45;5.95;;;19.40;79.00;;;;;;5177885;27;20038;-67
2022/04/23 01:42:06;;;;;;;7.82;5.43;;;19.30;79.10;;;;;;5159435;27;20050;-68
2022/04/23 01:44:31;;;;;;;9.23;5.82;;;19.40;76.00;;;;;;5179434;27;20052;-68
2022/04/23 01:46:57;;;;;;;9.57;6.03;;;19.60;79.10;;;;;;5178782;27;20030;-68
2022/04/23 01:49:23;;;;;;;9.32;5.82;;;19.40;79.00;;;;;;5149388;27;20046;-67
2022/04/23 01:51:48;;;;;;;8.57;5.15;;;19.50;79.10;;;;;;5161050;27;20105;-69
2022/04/23 01:54:14;;;;;;;9.63;6.18;;;19.60;79.30;;;;;;5160180;27;20506;-67
2022/04/23 01:56:40;;;;;;;9.68;6.22;;;;;;;;;;5177466;27;20425;-68
2022/04/23 01:59:06;;;;;;;12.10;6.22;;;19.50;79.40;;;;;;5178519;27;20046;-62
2022/04/23 02:01:32;;;;;;;9.55;5.97;;;19.30;79.20;;;;;;5159384;27;20090;-64
2022/04/23 02:03:59;;;;;;;10.48;6.15;;;19.60;79.50;;;;;;5159367;27;20038;-66
2022/04/23 02:06:24;;;;;;;8.27;5.50;;;19.40;79.40;;;;;;5178630;27;20046;-68
2022/04/23 02:08:50;;;;;;;9.55;6.00;;;19.40;79.40;;;;;;5178350;27;20034;-67
2022/04/23 02:11:16;;;;;;;9.40;5.80;;;19.40;79.50;;;;;;5159075;27;20034;-68
2022/04/23 02:13:41;;;;;;;9.82;6.07;;;19.30;79.80;;;;;;5160030;27;20046;-68
2022/04/23 02:16:09;;;;;;;9.77;6.28;;;19.20;76.50;;;;;;5142032;27;20038;-67
2022/04/23 02:18:37;;;;;;;9.93;6.05;;;19.20;79.40;;;;;;5158813;27;20050;-67
2022/04/23 02:21:03;;;;;;;10.43;5.95;;;;;;;;;;5141587;27;20054;-65
2022/04/23 02:23:29;;;;;;;10.77;6.15;;;19.40;79.70;;;;;;5159993;27;20042;-68
2022/04/23 02:25:55;;;;;;;8.98;6.43;;;19.20;79.50;;;;;;5159550;27;20140;-68
2022/04/23 02:28:21;;;;;;;9.02;5.90;;;;;;;;;;5176871;27;20117;-62
2022/04/23 02:30:47;;;;;;;10.48;5.70;;;19.20;79.50;;;;;;5177685;27;20042;-68
2022/04/23 02:33:14;;;;;;;10.32;6.20;;;19.10;76.90;;;;;;5154432;27;20134;-66
2022/04/23 02:35:39;;;;;;;8.82;5.80;;;19.20;79.70;;;;;;5157796;27;20054;-63
2022/04/23 02:38:05;;;;;;;11.07;6.63;;;19.10;79.50;;;;;;5155342;27;20472;-64
2022/04/23 02:40:31;;;;;;;10.43;6.20;;;19.30;76.60;;;;;;5154687;27;20467;-64
2022/04/23 02:42:57;;;;;;;9.52;6.07;;;19.30;79.80;;;;;;5135203;27;20047;-63
2022/04/23 02:45:24;;;;;;;11.90;6.88;;;19.20;76.90;;;;;;5150381;27;20063;-63
2022/04/23 02:47:53;;;;;;;9.43;5.85;;;19.10;76.50;;;;;;5156107;27;20071;-66
2022/04/23 02:50:34;;;;;;;8.60;5.93;;;19.30;79.80;;;;;;5155652;27;20049;-65
2022/04/23 02:53:00;;;;;;;11.30;6.35;;;19.10;79.60;;;;;;5153314;27;20503;-62
2022/04/23 02:55:27;;;;;;;10.00;6.70;;;19.10;77.00;;;;;;5154639;27;20046;-62
2022/04/23 02:57:53;;;;;;;8.73;5.93;;;19.00;79.60;;;;;;5144363;27;20042;-62
2022/04/23 03:00:19;;;;;;;9.85;6.50;;;19.20;76.80;;;;;;5155758;27;20046;-67
2022/04/23 03:02:47;;;;;;;9.20;6.60;;;18.90;77.00;;;;;;5134337;27;20043;-63
2022/04/23 03:05:14;;;;;;;10.20;6.32;;;19.00;76.40;;;;;;5151717;27;20515;-66
2022/04/23 03:07:40;;;;;;;10.55;6.50;;;18.80;79.40;;;;;;5154592;27;20046;-62
2022/04/23 03:10:07;;;;;;;10.55;6.15;;;19.10;79.70;;;;;;5138414;27;20057;-67
2022/04/23 03:12:33;;;;;;;11.90;6.18;;;19.00;79.80;;;;;;5156159;27;20047;-64
2022/04/23 03:14:58;;;;;;;11.32;6.30;;;19.00;79.60;;;;;;5156059;27;20049;-63
2022/04/23 03:17:26;;;;;;;10.02;6.13;;;19.10;76.60;;;;;;5156869;27;20403;-62
2022/04/23 03:19:51;;;;;;;9.60;6.28;;;18.70;79.40;;;;;;5156350;27;20126;-65
2022/04/23 03:22:19;;;;;;;8.95;6.60;;;19.10;79.60;;;;;;5155755;27;20491;-64
2022/04/23 03:24:45;;;;;;;8.73;6.18;;;19.10;79.50;;;;;;5136685;27;20046;-68
2022/04/23 03:27:11;;;;;;;9.30;6.63;;;19.10;79.80;;;;;;5155521;27;20091;-63
2022/04/23 03:29:37;;;;;;;10.18;6.90;;;19.20;79.60;;;;;;5155561;27;20515;-68
2022/04/23 03:32:03;;;;;;;11.30;6.35;;;19.00;79.70;;;;;;5138209;27;20047;-63
2022/04/23 03:34:28;;;;;;;9.82;6.68;;;19.10;79.60;;;;;;5156503;27;20166;-68
2022/04/23 03:36:54;;;;;;;9.35;6.45;;;18.80;79.40;;;;;;5155547;27;20047;-62
2022/04/23 03:39:20;;;;;;;9.18;6.63;;;18.90;76.70;;;;;;5154396;27;20125;-64
2022/04/23 03:41:46;;;;;;;8.30;5.97;;;19.10;79.50;;;;;;5156153;27;20030;-68
2022/04/23 03:44:11;;;;;;;8.60;5.97;;;18.80;76.60;;;;;;5156635;27;20395;-63
2022/04/23 03:46:37;;;;;;;9.90;6.55;;;19.10;79.50;;;;;;5155526;27;20064;-62
2022/04/23 03:49:03;;;;;;;9.18;6.30;;;19.00;79.50;;;;;;5156244;27;20103;-64
2022/04/23 03:51:28;;;;;;;10.00;6.30;;;19.00;76.40;;;;;;5148978;27;20039;-63
2022/04/23 03:53:55;;;;;;;9.65;6.32;;;18.90;79.40;;;;;;5135403;27;20039;-64
2022/04/23 03:56:21;;;;;;;8.98;5.82;;;;;;;;;;5136603;27;20078;-67
2022/04/23 03:58:46;;;;;;;8.88;6.45;;;18.80;78.10;;;;;;5153411;27;20472;-64
2022/04/23 04:01:12;;;;;;;9.02;5.53;;;18.90;79.50;;;;;;5156363;27;20118;-63
2022/04/23 04:03:38;;;;;;;10.77;6.57;;;19.00;76.80;;;;;;5136872;27;20475;-63
2022/04/23 04:06:03;;;;;;;9.75;6.68;;;18.70;79.40;;;;;;5154649;27;20050;-63
2022/04/23 04:08:29;;;;;;;8.75;5.95;;;18.80;79.50;;;;;;5152717;27;20396;-63
2022/04/23 04:10:55;;;;;;;9.57;6.22;;;18.60;79.30;;;;;;5153856;27;20130;-67
2022/04/23 04:13:21;;;;;;;8.70;6.28;;;18.80;79.40;;;;;;5137192;27;20078;-64
2022/04/23 04:15:47;;;;;;;8.40;6.25;;;18.80;79.40;;;;;;5154159;27;20125;-66
2022/04/23 04:18:12;;;;;;;10.07;6.57;;;18.80;79.40;;;;;;5153122;27;20369;-66
2022/04/23 04:20:39;;;;;;;9.15;6.13;;;18.80;79.60;;;;;;5137430;27;20057;-66
2022/04/23 04:23:05;;;;;;;11.68;6.10;;;18.70;76.60;;;;;;5137156;27;20038;-68
2022/04/23 04:25:31;;;;;;;9.23;6.35;;;18.60;79.10;;;;;;5153399;27;20073;-68
2022/04/23 04:28:00;;;;;;;9.10;6.78;;;18.80;79.40;;;;;;5155645;27;20066;-63
2022/04/23 04:30:25;;;;;;;8.43;6.50;;;18.70;79.20;;;;;;5154167;27;20391;-65
2022/04/23 04:32:51;;;;;;;7.68;6.35;;;18.50;79.10;;;;;;5154270;27;20055;-63
2022/04/23 04:35:17;;;;;;;9.65;6.40;;;18.70;76.70;;;;;;5154118;27;20082;-63
2022/04/23 04:37:44;;;;;;;9.35;6.35;;;;;;;;;;5135848;27;20062;-67
2022/04/23 04:40:11;;;;;;;10.75;6.53;;;18.50;76.30;;;;;;5134535;27;20042;-63
2022/04/23 04:42:36;;;;;;;11.07;6.20;;;18.70;79.10;;;;;;5118852;27;20167;-64
2022/04/23 04:45:02;;;;;;;12.02;6.85;;;18.70;79.20;;;;;;5153534;27;20125;-62
2022/04/23 04:47:28;;;;;;;12.48;6.60;;;19.00;79.10;;;;;;5152916;27;20039;-62
2022/04/23 04:49:54;;;;;;;9.05;6.15;;;18.90;79.00;;;;;;5153428;27;20046;-62
2022/04/23 04:52:20;;;;;;;9.20;6.03;;;18.70;76.10;;;;;;5153070;27;20495;-68
2022/04/23 04:54:45;;;;;;;9.43;6.60;;;19.10;78.10;;;;;;5153106;27;20488;-68
2022/04/23 04:57:11;;;;;;;13.05;6.60;;;18.90;78.80;;;;;;5154426;27;20035;-68
2022/04/23 04:59:39;;;;;;;18.83;6.75;;;18.90;75.70;;;;;;5155100;27;20409;-66
2022/04/23 05:02:05;;;;;;;15.05;6.55;;;19.10;78.50;;;;;;5155382;27;20436;-68
2022/04/23 05:04:31;;;;;;;13.73;6.50;;;19.10;78.30;;;;;;5152187;27;20126;-66
2022/04/23 05:06:57;;;;;;;13.10;6.95;;;19.30;78.20;;;;;;5153984;27;20043;-67
2022/04/23 05:09:23;;;;;;;10.60;6.40;;;19.00;78.00;;;;;;5153993;27;20493;-66
2022/04/23 05:11:49;;;;;;;11.07;6.78;;;19.10;77.80;;;;;;5153350;27;20045;-66
2022/04/23 05:14:16;;;;;;;11.90;6.22;;;19.40;77.80;;;;;;5154366;27;20108;-66
2022/04/23 05:16:43;;;;;;;9.32;6.03;;;19.50;75.00;;;;;;5152554;27;20047;-67
2022/04/23 05:19:09;;;;;;;12.23;6.13;;;19.20;77.40;;;;;;5152967;27;20498;-66
2022/04/23 05:21:35;;;;;;;13.63;6.40;;;19.40;77.50;;;;;;5153998;27;20050;-67
2022/04/23 05:24:00;;;;;;;13.10;6.28;;;19.40;77.50;;;;;;5153890;27;20047;-67
2022/04/23 05:26:26;;;;;;;14.40;6.53;;;19.70;77.30;;;;;;5154020;27;20031;-65
2022/04/23 05:28:52;;;;;;;13.15;6.60;;;19.70;77.10;;;;;;5154633;27;20051;-68
2022/04/23 05:31:18;;;;;;;10.13;5.72;;;19.50;76.80;;;;;;5155760;27;20034;-67
2022/04/23 05:33:44;;;;;;;12.15;6.32;;;19.70;76.70;;;;;;5174740;27;20046;-67
2022/04/23 05:36:10;;;;;;;15.93;6.70;;;19.90;76.70;;;;;;5156327;27;20038;-66
2022/04/23 05:38:36;;;;;;;10.82;5.80;;;19.70;76.40;;;;;;5155907;27;20486;-62
2022/04/23 05:41:02;;;;;;;10.73;6.00;;;20.00;73.00;;;;;;5175016;27;20045;-64
2022/04/23 05:43:28;;;;;;;10.07;6.40;;;19.90;75.90;;;;;;5155209;27;20069;-63
2022/04/23 05:45:57;;;;;;;11.98;5.93;;;20.20;75.90;;;;;;5174460;27;20050;-62
2022/04/23 05:48:23;;;;;;;9.70;5.95;;;20.10;75.60;;;;;;5174522;27;20471;-63
2022/04/23 05:50:49;;;;;;;16.35;6.43;;;20.30;75.40;;;;;;5156236;27;20035;-64
2022/04/23 05:53:15;;;;;;;10.98;6.13;;;20.50;72.80;;;;;;5156559;27;20046;-63
2022/04/23 05:55:42;;;;;;;11.25;6.00;;;;;;;;;;5155603;27;20054;-63
2022/04/23 05:58:08;;;;;;;13.60;6.40;;;20.60;74.70;;;;;;5173597;27;20117;-63
2022/04/23 06:00:34;;;;;;;9.18;6.28;;;20.60;71.80;;;;;;5157236;27;20042;-62
2022/04/23 06:03:00;;;;;;;12.82;6.13;;;;;;;;;;5174674;27;20041;-62
2022/04/23 06:05:26;;;;;;;10.38;5.95;;;20.70;70.30;;;;;;5177934;27;20038;-61
2022/04/23 06:07:52;;;;;;;10.75;6.82;;;21.10;74.30;;;;;;5159415;27;20126;-64
2022/04/23 06:10:17;;;;;;;11.98;5.63;;;21.00;74.00;;;;;;5160875;27;20494;-62
2022/04/23 06:12:43;;;;;;;8.65;5.93;;;21.30;74.00;;;;;;5177329;27;20038;-63
2022/04/23 06:15:09;;;;;;;13.23;6.45;;;21.40;73.80;;;;;;5159492;27;20376;-69
2022/04/23 06:17:38;;;;;;;10.70;6.40;;;21.60;73.50;;;;;;5159754;27;20054;-70
2022/04/23 06:20:05;;;;;;;10.32;6.25;;;21.70;73.40;;;;;;5178152;27;20428;-67
2022/04/23 06:22:31;;;;;;;11.82;6.60;;;21.50;70.10;;;;;;5160537;27;20073;-70
2022/04/23 06:24:57;;;;;;;8.98;5.65;;;21.60;72.80;;;;;;5159521;27;20050;-70
2022/04/23 06:27:23;;;;;;;10.10;6.47;;;;;;;;;;5142739;27;20049;-67
2022/04/23 06:29:49;;;;;;;15.48;6.47;;;21.60;72.60;;;;;;5140606;27;20487;-72
2022/04/23 06:32:14;;;;;;;11.77;6.18;;;21.80;72.50;;;;;;5142359;27;20113;-66
2022/04/23 06:34:41;;;;;;;14.93;6.30;;;21.80;72.40;;;;;;5158995;27;20050;-67
2022/04/23 06:37:06;;;;;;;11.85;6.47;;;22.20;72.20;;;;;;5107537;27;20073;-70
2022/04/23 06:39:32;;;;;;;16.35;6.85;;;22.30;72.00;;;;;;5158936;27;20115;-67
2022/04/23 06:41:58;;;;;;;14.80;6.30;;;21.90;69.00;;;;;;5141503;27;20034;-67
2022/04/23 06:44:24;;;;;;;13.32;6.20;;;22.20;71.80;;;;;;5159335;27;20444;-69
2022/04/23 06:46:50;;;;;;;14.27;6.85;;;21.90;68.80;;;;;;5140984;27;20049;-66
2022/04/23 06:49:16;;;;;;;13.20;6.00;;;22.30;69.00;;;;;;5159263;27;20102;-69
2022/04/23 06:51:42;;;;;;;19.23;6.95;;;22.30;71.30;;;;;;5158812;27;20042;-66
2022/04/23 06:54:08;;;;;;;14.30;7.03;;;22.30;71.20;;;;;;5158517;27;20114;-69
2022/04/23 06:56:34;;;;;;;12.38;6.85;;;22.10;68.20;;;;;;5125051;27;20130;-66
2022/04/23 06:58:59;;;;;;;12.80;7.05;;;22.20;68.20;;;;;;5177613;27;20135;-66
2022/04/23 07:01:26;;;;;;;16.98;7.45;;;22.30;68.10;;;;;;5157621;27;20483;-67
2022/04/23 07:03:52;;;;;;;24.48;7.68;;;22.10;70.60;;;;;;5160338;27;20054;-69
2022/04/23 07:06:18;;;;;;;12.55;7.82;;;22.30;67.50;;;;;;5178178;27;20037;-67
2022/04/23 07:08:44;;;;;;;19.02;7.32;;;22.20;70.40;;;;;;5177232;27;20042;-65
2022/04/23 07:11:10;;;;;;;19.98;8.38;;;22.20;67.70;;;;;;5177920;27;20042;-66
2022/04/23 07:13:38;;;;;;;15.55;7.55;;;22.40;70.30;;;;;;5177489;27;20450;-68
2022/04/23 07:16:04;;;;;;;16.33;7.32;;;22.30;70.20;;;;;;5156970;27;20065;-68
2022/04/23 07:18:31;;;;;;;14.10;7.75;;;22.30;70.10;;;;;;5157288;27;20050;-65
2022/04/23 07:20:57;;;;;;;15.45;7.43;;;22.30;70.10;;;;;;5159115;27;20042;-67
2022/04/23 07:26:06;;;;;;;14.90;8.15;;;22.10;66.50;;;;;;5157023;27;20043;-69
2022/04/23 07:28:33;;;;;;;13.90;8.02;;;22.30;69.70;;;;;;5161805;27;20046;-65
2022/04/23 07:31:00;;;;;;;10.60;7.65;;;22.30;66.90;;;;;;5177839;27;20039;-65
2022/04/23 07:38:54;;;;;;;10.68;8.25;;;22.10;69.40;;;;;;5152501;27;20600;-62
2022/04/23 07:41:20;;;;;;;9.25;7.65;;;22.30;66.40;;;;;;5177475;27;20038;-63
2022/04/23 07:43:46;;;;;;;15.85;8.68;;;22.40;66.80;;;;;;5157437;27;20034;-62
2022/04/23 07:46:12;;;;;;;17.80;8.18;;;22.50;69.40;;;;;;5155524;27;20129;-63
2022/04/23 07:48:39;;;;;;;15.45;7.97;;;22.30;66.40;;;;;;5141481;27;20042;-65
2022/04/23 07:51:04;;;;;;;13.13;8.63;;;22.30;66.40;;;;;;5157309;27;20091;-67
2022/04/23 07:53:30;;;;;;;13.68;7.95;;;22.50;69.20;;;;;;5140924;27;20047;-65
2022/04/23 07:55:56;;;;;;;12.07;8.00;;;22.10;66.10;;;;;;5175329;27;20042;-70
2022/04/23 07:58:23;;;;;;;12.77;8.48;;;22.50;66.30;;;;;;5104980;27;20034;-70
2022/04/23 08:00:48;;;;;;;11.85;7.97;;;22.30;68.80;;;;;;5157235;27;20049;-69
2022/04/23 08:03:15;;;;;;;10.02;8.00;;;22.30;66.00;;;;;;5140300;27;20038;-69
2022/04/23 08:05:41;;;;;;;10.15;8.68;;;22.30;65.90;;;;;;5157590;27;20046;-69
2022/04/23 08:08:07;;;;;;;11.50;7.68;;;22.30;66.00;;;;;;5157149;27;20046;-69
2022/04/23 08:10:33;;;;;;;9.63;7.95;;;22.50;68.70;;;;;;5155699;27;20043;-68
2022/04/23 08:12:59;;;;;;;10.23;8.75;;;22.40;66.00;;;;;;5157137;27;20113;-69
2022/04/23 08:15:26;;;;;;;13.27;8.30;;;22.40;68.40;;;;;;5175621;27;20138;-71
2022/04/23 08:17:52;;;;;;;11.23;8.80;;;22.40;66.00;;;;;;5174562;27;20049;-71
2022/04/23 08:20:18;;;;;;;12.48;8.52;;;22.50;66.10;;;;;;5155192;27;20160;-69
2022/04/23 08:22:44;;;;;;;16.90;9.13;;;22.30;68.50;;;;;;5155696;27;20057;-69
2022/04/23 08:25:10;;;;;;;15.48;8.80;;;22.40;65.60;;;;;;5176019;27;20084;-69
2022/04/23 08:30:34;;;;;;;13.90;9.07;;;22.30;68.50;;;;;;5173670;27;20038;-67
2022/04/23 08:30:41;;;;;;;15.68;10.30;;;22.50;68.60;;;;;;5156917;27;20499;-68
2022/04/23 08:33:07;;;;;;;21.17;9.45;;;22.40;68.40;;;;;;5175426;27;20060;-67
2022/04/23 08:35:34;;;;;;;17.38;8.75;;;22.30;68.50;;;;;;5176228;27;20138;-68
2022/04/23 08:38:00;;;;;;;25.08;8.70;;;22.20;65.80;;;;;;5140243;27;20042;-71
2022/04/23 08:40:29;;;;;;;13.93;8.32;;;22.30;68.70;;;;;;5157747;27;20046;-66
2022/04/23 08:42:54;;;;;;;17.30;8.68;;;22.30;68.70;;;;;;5174592;27;20391;-67
2022/04/23 08:45:20;;;;;;;15.73;8.52;;;22.20;65.60;;;;;;5156691;27;20046;-68
2022/04/23 08:47:46;;;;;;;13.20;8.13;;;22.50;68.70;;;;;;5176620;27;20069;-67
2022/04/23 08:50:12;;;;;;;17.35;8.85;;;22.70;68.90;;;;;;5155751;27;20042;-67
2022/04/23 08:52:41;;;;;;;15.27;8.00;;;22.30;68.60;;;;;;5173694;27;20505;-67
2022/04/23 08:55:07;;;;;;;10.30;8.25;;;22.50;66.20;;;;;;5158245;27;20046;-68
2022/04/23 08:57:33;;;;;;;14.90;8.32;;;22.70;65.70;;;;;;5123284;27;20057;-65
2022/04/23 08:59:59;;;;;;;10.57;7.78;;;22.40;65.60;;;;;;5157902;27;20046;-71
2022/04/23 09:02:26;;;;;;;23.33;8.07;;;22.60;68.80;;;;;;5176223;27;20031;-67
2022/04/23 09:04:54;;;;;;;12.50;8.00;;;22.70;68.70;;;;;;5155421;27;20047;-69
2022/04/23 09:07:27;;;;;;;9.45;7.57;;;22.60;68.50;;;;;;5176199;27;20042;-66
2022/04/23 09:09:54;;;;;;;10.55;7.75;;;22.70;68.60;;;;;;5138885;27;20085;-68
2022/04/23 09:12:20;;;;;;;20.85;8.13;;;22.40;68.40;;;;;;5132915;27;20130;-72
2022/04/23 09:14:46;;;;;;;12.70;8.43;;;22.60;68.30;;;;;;5155676;27;20046;-67
2022/04/23 09:25:36;;;;;;;9.57;7.78;;;22.70;68.00;;;;;;5139947;27;20050;-68
2022/04/23 09:28:24;;;;;;;12.05;8.07;;;22.80;68.10;;;;;;5139430;27;20487;-67
2022/04/23 09:30:54;;;;;;;9.82;7.88;;;22.60;64.10;;;;;;5153945;27;20038;-72
2022/04/23 09:33:27;;;;;;;11.45;7.28;;;22.80;65.60;;;;;;5152976;27;20046;-67
2022/04/23 09:35:53;;;;;;;20.17;7.63;;;22.70;65.40;;;;;;5139854;27;20078;-66
2022/04/23 09:38:19;;;;;;;12.05;7.47;;;22.80;67.90;;;;;;5175959;27;20054;-70
2022/04/23 09:40:56;;;;;;;9.30;7.10;;;22.70;65.00;;;;;;5140782;27;20170;-69
2022/04/23 09:43:32;;;;;;;11.70;7.47;;;22.40;65.20;;;;;;5139627;27;20047;-67
2022/04/23 09:46:08;;;;;;;9.68;7.05;;;22.40;67.80;;;;;;5140042;27;20043;-69
2022/04/23 09:48:38;;;;;;;13.25;7.00;;;22.70;67.90;;;;;;5140273;27;20046;-68
2022/04/23 09:51:04;;;;;;;12.15;7.78;;;22.50;68.00;;;;;;5143396;27;20050;-68
2022/04/23 09:53:30;;;;;;;19.23;7.47;;;22.50;67.90;;;;;;5125135;27;20072;-68
2022/04/23 09:56:01;;;;;;;25.38;7.93;;;22.50;68.00;;;;;;5143100;27;20096;-68
2022/04/23 09:58:29;;;;;;;9.90;7.30;;;22.40;65.30;;;;;;5159479;27;20046;-67
2022/04/23 10:00:56;;;;;;;14.95;7.03;;;22.20;67.80;;;;;;5126498;27;20493;-68
2022/04/23 10:03:28;;;;;;;18.77;7.43;;;22.20;67.80;;;;;;5178569;27;20387;-67
2022/04/23 10:05:54;;;;;;;8.48;6.35;;;22.20;65.30;;;;;;5143043;27;20053;-68
2022/04/23 10:08:27;;;;;;;9.95;6.43;;;22.20;64.50;;;;;;5177936;27;20031;-67
2022/04/23 10:11:02;;;;;;;16.48;6.70;;;22.00;67.70;;;;;;5158769;27;20142;-67
2022/04/23 10:13:29;;;;;;;15.52;6.43;;;22.00;67.70;;;;;;5140400;27;20463;-67
2022/04/23 10:15:55;;;;;;;8.52;6.43;;;22.00;67.80;;;;;;5158645;27;20046;-69
2022/04/23 10:18:21;;;;;;;13.43;6.70;;;22.00;65.20;;;;;;5176408;27;20034;-67
2022/04/23 10:20:55;;;;;;;12.05;6.22;;;21.80;67.90;;;;;;5157611;27;20437;-67
2022/04/23 10:23:40;;;;;;;9.70;6.70;;;21.80;67.80;;;;;;5141725;27;20045;-68
2022/04/23 10:26:25;;;;;;;14.75;7.03;;;21.90;63.80;;;;;;5178710;27;20499;-68
2022/04/23 10:28:51;;;;;;;10.80;6.53;;;21.90;64.90;;;;;;5159673;27;20089;-68
2022/04/23 10:31:17;;;;;;;10.45;6.50;;;21.70;64.80;;;;;;5159672;27;20074;-69
2022/04/23 10:33:47;;;;;;;12.70;6.57;;;21.70;67.90;;;;;;5160506;27;20483;-68
2022/04/23 10:36:13;;;;;;;10.30;6.32;;;;;;;;;;5137793;27;20121;-67
2022/04/23 10:38:45;;;;;;;10.70;5.85;;;21.50;67.80;;;;;;5157933;27;20042;-67
2022/04/23 10:41:13;;;;;;;12.05;6.43;;;21.60;67.80;;;;;;5159682;27;20094;-63
2022/04/23 10:43:52;;;;;;;12.13;6.40;;;21.50;67.80;;;;;;5141733;27;20050;-68
2022/04/23 10:46:49;;;;;;;11.15;6.30;;;21.60;67.80;;;;;;5142741;27;20394;-68
2022/04/23 10:49:17;;;;;;;9.45;5.78;;;21.50;65.50;;;;;;5041562;28;20083;-67
2022/04/23 10:51:54;;;;;;;8.43;5.65;;;21.50;68.10;;;;;;5039502;28;20484;-68
2022/04/23 10:54:45;;;;;;;8.73;5.88;;;21.40;63.80;;;;;;5056883;28;20127;-67
2022/04/23 10:57:13;;;;;;;13.35;5.95;;;21.30;67.90;;;;;;5056253;28;20052;-67
2022/04/23 10:59:45;;;;;;;13.85;5.97;;;21.50;67.80;;;;;;5056238;28;20063;-68
2022/04/23 11:02:19;;;;;;;13.02;5.95;;;21.60;65.00;;;;;;5038402;28;20087;-68
2022/04/23 11:12:14;;;;;;;9.82;6.03;;;21.60;67.90;;;;;;5056324;28;20454;-65
2022/04/23 11:13:23;;;;;;;11.75;5.55;;;21.50;68.30;;;;;;5048635;28;20078;-66
2022/04/23 11:16:14;;;;;;;9.20;5.97;;;21.60;67.90;;;;;;5047808;28;20110;-67
2022/04/23 11:18:41;;;;;;;11.20;5.53;;;21.50;64.00;;;;;;5055000;28;20053;-66
2022/04/23 11:21:13;;;;;;;11.98;6.00;;;21.40;67.60;;;;;;5039654;28;20056;-68
2022/04/23 11:23:42;;;;;;;13.65;5.35;;;21.30;67.50;;;;;;5056180;28;20406;-68
2022/04/23 11:26:14;;;;;;;7.60;5.22;;;21.60;67.50;;;;;;5128384;27;20057;-68
2022/04/23 11:28:41;;;;;;;12.73;5.53;;;21.60;67.50;;;;;;5159189;27;20038;-68
2022/04/23 11:31:16;;;;;;;8.63;5.43;;;21.50;67.40;;;;;;5157607;27;20038;-63
2022/04/23 11:33:56;;;;;;;10.95;5.15;;;21.40;67.20;;;;;;5177308;27;20051;-68
2022/04/23 11:36:29;;;;;;;9.52;5.20;;;21.40;67.10;;;;;;5158659;27;20444;-68
2022/04/23 11:38:56;;;;;;;10.30;5.82;;;21.30;66.90;;;;;;5159106;27;20078;-64
2022/04/23 11:41:35;;;;;;;8.23;5.28;;;21.50;67.00;;;;;;5158325;27;20057;-68
2022/04/23 11:44:52;;;;;;;10.18;5.13;;;21.50;67.00;;;;;;5157807;27;20038;-64
2022/04/23 11:47:28;;;;;;;19.02;6.60;;;21.50;66.30;;;;;;5067246;28;20055;-65
2022/04/23 11:49:53;;;;;;;14.15;6.18;;;21.50;66.20;;;;;;5031120;28;20057;-65
2022/04/23 11:52:20;;;;;;;14.40;5.97;;;21.30;66.00;;;;;;5035807;28;20142;-64
2022/04/23 11:54:46;;;;;;;13.05;6.55;;;21.30;65.80;;;;;;5035448;28;20057;-63
2022/04/23 11:57:16;;;;;;;11.40;6.32;;;21.20;64.30;;;;;;5018460;28;20125;-63
2022/04/23 11:59:43;;;;;;;11.43;5.47;;;20.90;63.10;;;;;;5017228;28;20052;-65
2022/04/23 12:02:22;;;;;;;9.85;5.57;;;20.90;65.50;;;;;;5051450;28;20048;-64
2022/04/23 12:04:49;;;;;;;8.95;5.07;;;20.80;65.10;;;;;;5034222;28;20053;-63
2022/04/23 12:07:15;;;;;;;17.13;5.97;;;21.00;62.80;;;;;;5037077;28;20482;-63
2022/04/23 12:09:49;;;;;;;12.63;5.20;;;20.80;65.30;;;;;;5070417;28;20139;-63
2022/04/23 12:12:22;;;;;;;14.50;6.00;;;20.90;64.80;;;;;;5049916;28;20088;-63
2022/04/23 12:14:50;;;;;;;14.95;6.55;;;20.80;65.30;;;;;;5042786;28;20076;-62
2022/04/23 12:17:26;;;;;;;10.93;5.03;;;20.70;62.70;;;;;;5055000;28;20059;-63
2022/04/23 12:19:53;;;;;;;10.05;5.00;;;20.70;65.30;;;;;;5071657;28;20128;-62
2022/04/23 12:22:26;;;;;;;7.40;5.22;;;20.80;60.60;;;;;;5078647;27;20093;-63
2022/04/23 12:25:18;;;;;;;8.32;5.22;;;20.60;65.30;;;;;;5157714;27;20050;-62
2022/04/23 12:27:56;;;;;;;7.43;5.30;;;20.40;60.40;;;;;;5176208;27;20038;-63
2022/04/23 12:42:10;;;;;;;8.55;4.50;;;20.80;65.40;;;;;;5157344;27;20054;-63
2022/04/23 12:44:42;;;;;;;8.52;4.32;;;20.90;65.40;;;;;;5138617;27;20498;-65
2022/04/23 12:47:35;;;;;;;11.50;4.93;;;20.90;61.50;;;;;;5140147;27;20099;-63
2022/04/23 12:50:06;;;;;;;8.65;4.57;;;21.00;65.10;;;;;;5158867;27;20460;-63
2022/04/23 12:52:38;;;;;;;8.57;4.72;;;20.90;65.10;;;;;;5171892;27;20039;-66
2022/04/23 12:55:26;;;;;;;14.40;4.70;;;20.70;60.80;;;;;;5155381;27;20061;-64
2022/04/23 12:58:05;;;;;;;14.82;4.95;;;20.60;62.50;;;;;;5140723;27;20057;-63
2022/04/23 13:00:36;;;;;;;9.68;4.90;;;20.40;65.10;;;;;;5175946;27;20110;-62
2022/04/23 13:03:22;;;;;;;8.60;4.15;;;20.50;65.20;;;;;;5175739;27;20087;-63
2022/04/23 13:05:47;;;;;;;6.43;4.30;;;20.50;65.10;;;;;;5159064;27;20042;-63
2022/04/23 13:11:24;;;;;;;6.25;3.90;;;20.50;65.00;;;;;;5175885;27;20491;-63
2022/04/23 13:13:44;;;;;;;6.90;3.75;;;20.80;65.20;;;;;;5176303;27;20491;-64
2022/04/23 13:16:10;;;;;;;6.97;4.20;;;20.60;61.90;;;;;;5180506;27;20094;-62
2022/04/23 13:18:36;;;;;;;23.80;4.45;;;20.80;65.20;;;;;;5180143;27;20121;-63
2022/04/23 13:21:02;;;;;;;7.05;4.22;;;20.90;65.20;;;;;;5161318;27;20049;-62
2022/04/23 13:23:27;;;;;;;6.13;3.97;;;20.40;64.90;;;;;;5144243;27;20487;-64
2022/04/23 13:25:57;;;;;;;7.80;4.20;;;20.70;65.10;;;;;;5161763;27;20411;-66
2022/04/23 13:28:25;;;;;;;5.55;3.90;;;20.70;65.30;;;;;;5160985;27;20096;-67